sensor_id;sensor_type;location;lat;lon;timestamp;temperature;humidity
24522;DHT22;12680;57.804;12.190;2024-03-08T00:00:18;0.70;99.90
24522;DHT22;12680;57.804;12.190;2024-03-08T00:02:46;0.50;99.90
24522;DHT22;12680;57.804;12.190;2024-03-08T00:05:14;0.50;99.90
24522;DHT22;12680;57.804;12.190;2024-03-08T00:07:42;0.60;99.90
24522;DHT22;12680;57.804;12.190;2024-03-08T00:10:11;0.80;99.90
24522;DHT22;12680;57.804;12.190;2024-03-08T00:12:41;0.50;99.90
24522;DHT22;12680;57.804;12.190;2024-03-08T00:15:16;0.60;99.90
24522;DHT22;12680;57.804;12.190;2024-03-08T00:17:46;0.60;99.90
24522;DHT22;12680;57.804;12.190;2024-03-08T00:20:14;0.90;99.90
24522;DHT22;12680;57.804;12.190;2024-03-08T00:22:42;0.70;99.90
24522;DHT22;12680;57.804;12.190;2024-03-08T00:25:09;0.70;99.90
24522;DHT22;12680;57.804;12.190;2024-03-08T00:27:37;0.60;99.90
24522;DHT22;12680;57.804;12.190;2024-03-08T00:30:05;0.60;99.90
24522;DHT22;12680;57.804;12.190;2024-03-08T00:32:33;0.60;99.90
24522;DHT22;12680;57.804;12.190;2024-03-08T00:35:00;0.70;99.90
24522;DHT22;12680;57.804;12.190;2024-03-08T00:37:27;0.70;99.90
24522;DHT22;12680;57.804;12.190;2024-03-08T00:39:54;0.70;99.90
24522;DHT22;12680;57.804;12.190;2024-03-08T00:42:21;0.70;99.90
24522;DHT22;12680;57.804;12.190;2024-03-08T00:44:47;0.70;99.90
24522;DHT22;12680;57.804;12.190;2024-03-08T00:47:18;0.70;99.90
24522;DHT22;12680;57.804;12.190;2024-03-08T00:49:46;0.70;99.90
24522;DHT22;12680;57.804;12.190;2024-03-08T00:52:13;0.70;99.90
24522;DHT22;12680;57.804;12.190;2024-03-08T00:54:41;0.70;99.90
24522;DHT22;12680;57.804;12.190;2024-03-08T00:57:09;0.80;99.90
24522;DHT22;12680;57.804;12.190;2024-03-08T00:59:38;0.90;99.90
24522;DHT22;12680;57.804;12.190;2024-03-08T01:02:05;0.80;99.90
24522;DHT22;12680;57.804;12.190;2024-03-08T01:04:32;0.70;99.90
24522;DHT22;12680;57.804;12.190;2024-03-08T01:07:00;0.90;99.90
24522;DHT22;12680;57.804;12.190;2024-03-08T01:09:27;0.60;99.90
24522;DHT22;12680;57.804;12.190;2024-03-08T01:11:54;0.50;99.90
24522;DHT22;12680;57.804;12.190;2024-03-08T01:14:23;0.60;99.90
24522;DHT22;12680;57.804;12.190;2024-03-08T01:16:50;0.30;99.90
24522;DHT22;12680;57.804;12.190;2024-03-08T01:19:17;0.30;99.90
24522;DHT22;12680;57.804;12.190;2024-03-08T01:21:44;0.30;99.90
24522;DHT22;12680;57.804;12.190;2024-03-08T01:24:11;0.40;99.90
24522;DHT22;12680;57.804;12.190;2024-03-08T01:26:38;0.60;99.90
24522;DHT22;12680;57.804;12.190;2024-03-08T01:29:05;0.30;99.90
24522;DHT22;12680;57.804;12.190;2024-03-08T01:31:32;0.20;99.90
24522;DHT22;12680;57.804;12.190;2024-03-08T01:33:59;0.10;99.90
24522;DHT22;12680;57.804;12.190;2024-03-08T01:36:26;0.20;99.90
24522;DHT22;12680;57.804;12.190;2024-03-08T01:38:53;-0.10;99.90
24522;DHT22;12680;57.804;12.190;2024-03-08T01:41:20;-0.10;99.90
24522;DHT22;12680;57.804;12.190;2024-03-08T01:43:47;0.00;99.90
24522;DHT22;12680;57.804;12.190;2024-03-08T01:46:17;0.00;99.90
24522;DHT22;12680;57.804;12.190;2024-03-08T01:48:45;0.30;99.90
24522;DHT22;12680;57.804;12.190;2024-03-08T01:51:13;0.60;99.90
24522;DHT22;12680;57.804;12.190;2024-03-08T01:53:43;0.20;99.90
24522;DHT22;12680;57.804;12.190;2024-03-08T01:56:14;0.40;99.90
24522;DHT22;12680;57.804;12.190;2024-03-08T01:58:41;0.70;99.90
24522;DHT22;12680;57.804;12.190;2024-03-08T02:01:12;0.30;99.90
24522;DHT22;12680;57.804;12.190;2024-03-08T02:03:42;0.40;99.90
24522;DHT22;12680;57.804;12.190;2024-03-08T02:06:13;0.20;99.90
24522;DHT22;12680;57.804;12.190;2024-03-08T02:08:45;0.40;99.90
24522;DHT22;12680;57.804;12.190;2024-03-08T02:11:12;0.50;99.90
24522;DHT22;12680;57.804;12.190;2024-03-08T02:13:40;0.50;99.90
24522;DHT22;12680;57.804;12.190;2024-03-08T02:16:07;0.40;99.90
24522;DHT22;12680;57.804;12.190;2024-03-08T02:18:35;0.40;99.90
24522;DHT22;12680;57.804;12.190;2024-03-08T02:21:04;0.50;99.90
24522;DHT22;12680;57.804;12.190;2024-03-08T02:23:32;0.50;99.90
24522;DHT22;12680;57.804;12.190;2024-03-08T02:25:59;0.40;99.90
24522;DHT22;12680;57.804;12.190;2024-03-08T02:28:26;0.20;99.90
24522;DHT22;12680;57.804;12.190;2024-03-08T02:30:53;0.10;99.90
24522;DHT22;12680;57.804;12.190;2024-03-08T02:33:25;0.00;99.90
24522;DHT22;12680;57.804;12.190;2024-03-08T02:35:52;0.00;99.90
24522;DHT22;12680;57.804;12.190;2024-03-08T02:38:21;0.00;99.90
24522;DHT22;12680;57.804;12.190;2024-03-08T02:40:52;0.10;99.90
24522;DHT22;12680;57.804;12.190;2024-03-08T02:43:20;0.10;99.90
24522;DHT22;12680;57.804;12.190;2024-03-08T02:45:46;-4.20;99.90
24522;DHT22;12680;57.804;12.190;2024-03-08T02:48:14;0.00;99.90
24522;DHT22;12680;57.804;12.190;2024-03-08T02:50:43;0.00;99.90
24522;DHT22;12680;57.804;12.190;2024-03-08T02:53:12;0.00;99.90
24522;DHT22;12680;57.804;12.190;2024-03-08T02:55:39;0.00;99.90
24522;DHT22;12680;57.804;12.190;2024-03-08T02:58:08;0.10;99.90
24522;DHT22;12680;57.804;12.190;2024-03-08T03:00:38;0.20;99.90
24522;DHT22;12680;57.804;12.190;2024-03-08T03:03:08;0.20;99.90
24522;DHT22;12680;57.804;12.190;2024-03-08T03:05:36;0.30;99.90
24522;DHT22;12680;57.804;12.190;2024-03-08T03:08:03;0.30;99.90
24522;DHT22;12680;57.804;12.190;2024-03-08T03:10:36;0.30;99.90
24522;DHT22;12680;57.804;12.190;2024-03-08T03:13:03;0.50;99.90
24522;DHT22;12680;57.804;12.190;2024-03-08T03:15:31;0.50;99.90
24522;DHT22;12680;57.804;12.190;2024-03-08T03:17:58;0.60;99.90
24522;DHT22;12680;57.804;12.190;2024-03-08T03:20:25;0.70;99.90
24522;DHT22;12680;57.804;12.190;2024-03-08T03:23:00;0.70;99.90
24522;DHT22;12680;57.804;12.190;2024-03-08T03:25:30;0.60;99.90
24522;DHT22;12680;57.804;12.190;2024-03-08T03:28:02;0.50;99.90
24522;DHT22;12680;57.804;12.190;2024-03-08T03:30:29;0.50;99.90
24522;DHT22;12680;57.804;12.190;2024-03-08T03:33:00;0.50;99.90
24522;DHT22;12680;57.804;12.190;2024-03-08T03:35:28;0.50;99.90
24522;DHT22;12680;57.804;12.190;2024-03-08T03:37:58;0.40;99.90
24522;DHT22;12680;57.804;12.190;2024-03-08T03:40:29;0.30;99.90
24522;DHT22;12680;57.804;12.190;2024-03-08T03:42:56;0.30;99.90
24522;DHT22;12680;57.804;12.190;2024-03-08T03:45:26;0.30;99.90
24522;DHT22;12680;57.804;12.190;2024-03-08T03:47:53;0.30;99.90
24522;DHT22;12680;57.804;12.190;2024-03-08T03:50:20;0.30;99.90
24522;DHT22;12680;57.804;12.190;2024-03-08T03:52:47;0.30;99.90
24522;DHT22;12680;57.804;12.190;2024-03-08T03:55:15;0.30;99.90
24522;DHT22;12680;57.804;12.190;2024-03-08T03:57:42;0.20;99.90
24522;DHT22;12680;57.804;12.190;2024-03-08T04:00:09;0.20;99.90
24522;DHT22;12680;57.804;12.190;2024-03-08T04:02:41;0.10;99.90
24522;DHT22;12680;57.804;12.190;2024-03-08T04:05:09;0.00;99.90
24522;DHT22;12680;57.804;12.190;2024-03-08T04:07:37;0.00;99.90
24522;DHT22;12680;57.804;12.190;2024-03-08T04:10:06;0.00;99.90
24522;DHT22;12680;57.804;12.190;2024-03-08T04:12:34;0.00;99.90
24522;DHT22;12680;57.804;12.190;2024-03-08T04:15:01;-0.10;99.90
24522;DHT22;12680;57.804;12.190;2024-03-08T04:17:28;-0.20;99.90
24522;DHT22;12680;57.804;12.190;2024-03-08T04:19:55;-0.20;99.90
24522;DHT22;12680;57.804;12.190;2024-03-08T04:22:22;-0.30;99.90
24522;DHT22;12680;57.804;12.190;2024-03-08T04:24:49;-0.30;99.90
24522;DHT22;12680;57.804;12.190;2024-03-08T04:27:15;-0.30;99.90
24522;DHT22;12680;57.804;12.190;2024-03-08T04:29:42;-0.30;99.90
24522;DHT22;12680;57.804;12.190;2024-03-08T04:32:09;-0.30;99.90
24522;DHT22;12680;57.804;12.190;2024-03-08T04:34:36;-0.30;99.90
24522;DHT22;12680;57.804;12.190;2024-03-08T04:37:04;-0.20;99.90
24522;DHT22;12680;57.804;12.190;2024-03-08T04:39:31;-0.20;99.90
24522;DHT22;12680;57.804;12.190;2024-03-08T04:42:02;-0.10;99.90
24522;DHT22;12680;57.804;12.190;2024-03-08T04:44:33;-0.10;99.90
24522;DHT22;12680;57.804;12.190;2024-03-08T04:47:00;0.10;99.90
24522;DHT22;12680;57.804;12.190;2024-03-08T04:49:27;0.00;99.90
24522;DHT22;12680;57.804;12.190;2024-03-08T04:51:55;0.00;99.90
24522;DHT22;12680;57.804;12.190;2024-03-08T04:54:21;0.10;99.90
24522;DHT22;12680;57.804;12.190;2024-03-08T04:56:48;0.10;99.90
24522;DHT22;12680;57.804;12.190;2024-03-08T04:59:15;0.10;99.90
24522;DHT22;12680;57.804;12.190;2024-03-08T05:01:41;0.10;99.90
24522;DHT22;12680;57.804;12.190;2024-03-08T05:04:09;0.20;99.90
24522;DHT22;12680;57.804;12.190;2024-03-08T05:06:36;0.10;99.90
24522;DHT22;12680;57.804;12.190;2024-03-08T05:09:03;0.10;99.90
24522;DHT22;12680;57.804;12.190;2024-03-08T05:11:41;0.10;99.90
24522;DHT22;12680;57.804;12.190;2024-03-08T05:14:10;0.10;99.90
24522;DHT22;12680;57.804;12.190;2024-03-08T05:16:36;0.10;99.90
24522;DHT22;12680;57.804;12.190;2024-03-08T05:19:03;0.20;99.90
24522;DHT22;12680;57.804;12.190;2024-03-08T05:21:30;0.20;99.90
24522;DHT22;12680;57.804;12.190;2024-03-08T05:23:57;0.10;99.90
24522;DHT22;12680;57.804;12.190;2024-03-08T05:26:24;0.20;99.90
24522;DHT22;12680;57.804;12.190;2024-03-08T05:28:51;0.40;99.90
24522;DHT22;12680;57.804;12.190;2024-03-08T05:31:21;0.40;99.90
24522;DHT22;12680;57.804;12.190;2024-03-08T05:33:51;0.30;99.90
24522;DHT22;12680;57.804;12.190;2024-03-08T05:36:20;0.20;99.90
24522;DHT22;12680;57.804;12.190;2024-03-08T05:38:48;0.10;99.90
24522;DHT22;12680;57.804;12.190;2024-03-08T05:41:17;0.10;99.90
24522;DHT22;12680;57.804;12.190;2024-03-08T05:43:44;0.10;99.90
24522;DHT22;12680;57.804;12.190;2024-03-08T05:46:14;0.00;99.90
24522;DHT22;12680;57.804;12.190;2024-03-08T05:48:41;0.00;99.90
24522;DHT22;12680;57.804;12.190;2024-03-08T05:51:08;0.10;99.90
24522;DHT22;12680;57.804;12.190;2024-03-08T05:53:35;0.20;99.90
24522;DHT22;12680;57.804;12.190;2024-03-08T05:56:02;0.20;99.90
24522;DHT22;12680;57.804;12.190;2024-03-08T05:58:30;0.20;99.90
24522;DHT22;12680;57.804;12.190;2024-03-08T06:00:58;0.20;99.90
24522;DHT22;12680;57.804;12.190;2024-03-08T06:03:24;0.20;99.90
24522;DHT22;12680;57.804;12.190;2024-03-08T06:05:51;0.10;99.90
24522;DHT22;12680;57.804;12.190;2024-03-08T06:08:18;0.10;99.90
24522;DHT22;12680;57.804;12.190;2024-03-08T06:10:45;0.10;99.90
24522;DHT22;12680;57.804;12.190;2024-03-08T06:13:15;0.20;99.90
24522;DHT22;12680;57.804;12.190;2024-03-08T06:15:41;0.20;99.90
24522;DHT22;12680;57.804;12.190;2024-03-08T06:18:08;0.20;99.90
24522;DHT22;12680;57.804;12.190;2024-03-08T06:20:38;0.20;99.90
24522;DHT22;12680;57.804;12.190;2024-03-08T06:23:05;0.20;99.90
24522;DHT22;12680;57.804;12.190;2024-03-08T06:25:31;0.20;99.90
24522;DHT22;12680;57.804;12.190;2024-03-08T06:27:58;0.20;99.90
24522;DHT22;12680;57.804;12.190;2024-03-08T06:30:25;0.20;99.90
24522;DHT22;12680;57.804;12.190;2024-03-08T06:32:52;0.20;99.90
24522;DHT22;12680;57.804;12.190;2024-03-08T06:35:19;0.20;99.90
24522;DHT22;12680;57.804;12.190;2024-03-08T06:37:46;0.10;99.90
24522;DHT22;12680;57.804;12.190;2024-03-08T06:40:13;0.10;99.90
24522;DHT22;12680;57.804;12.190;2024-03-08T06:42:41;0.30;99.90
24522;DHT22;12680;57.804;12.190;2024-03-08T06:45:08;0.30;99.90
24522;DHT22;12680;57.804;12.190;2024-03-08T06:47:37;0.20;99.90
24522;DHT22;12680;57.804;12.190;2024-03-08T06:50:04;0.20;99.90
24522;DHT22;12680;57.804;12.190;2024-03-08T06:52:32;0.30;99.90
24522;DHT22;12680;57.804;12.190;2024-03-08T06:54:59;0.30;99.90
24522;DHT22;12680;57.804;12.190;2024-03-08T06:57:28;0.30;99.90
24522;DHT22;12680;57.804;12.190;2024-03-08T06:59:56;0.30;99.90
24522;DHT22;12680;57.804;12.190;2024-03-08T07:02:23;0.40;99.90
24522;DHT22;12680;57.804;12.190;2024-03-08T07:04:54;0.40;99.90
24522;DHT22;12680;57.804;12.190;2024-03-08T07:07:21;0.40;99.90
24522;DHT22;12680;57.804;12.190;2024-03-08T07:09:48;0.40;99.90
24522;DHT22;12680;57.804;12.190;2024-03-08T07:12:16;0.40;99.90
24522;DHT22;12680;57.804;12.190;2024-03-08T07:14:43;0.40;99.90
24522;DHT22;12680;57.804;12.190;2024-03-08T07:17:12;0.50;99.90
24522;DHT22;12680;57.804;12.190;2024-03-08T07:19:39;0.60;99.90
24522;DHT22;12680;57.804;12.190;2024-03-08T07:22:06;0.70;99.90
24522;DHT22;12680;57.804;12.190;2024-03-08T07:24:35;0.60;99.90
24522;DHT22;12680;57.804;12.190;2024-03-08T07:27:18;0.60;99.90
24522;DHT22;12680;57.804;12.190;2024-03-08T07:29:45;0.60;99.90
24522;DHT22;12680;57.804;12.190;2024-03-08T07:32:12;0.60;99.90
24522;DHT22;12680;57.804;12.190;2024-03-08T07:34:48;0.60;99.90
24522;DHT22;12680;57.804;12.190;2024-03-08T07:37:17;0.50;99.90
24522;DHT22;12680;57.804;12.190;2024-03-08T07:39:46;1.90;99.90
24522;DHT22;12680;57.804;12.190;2024-03-08T07:42:13;0.50;99.90
24522;DHT22;12680;57.804;12.190;2024-03-08T07:44:40;2.20;99.90
24522;DHT22;12680;57.804;12.190;2024-03-08T07:47:06;0.50;99.90
24522;DHT22;12680;57.804;12.190;2024-03-08T07:49:36;0.60;99.90
24522;DHT22;12680;57.804;12.190;2024-03-08T07:52:06;0.60;99.90
24522;DHT22;12680;57.804;12.190;2024-03-08T07:54:34;0.70;99.90
24522;DHT22;12680;57.804;12.190;2024-03-08T07:57:02;0.70;99.90
24522;DHT22;12680;57.804;12.190;2024-03-08T07:59:29;0.80;99.90
24522;DHT22;12680;57.804;12.190;2024-03-08T08:01:57;0.90;99.90
24522;DHT22;12680;57.804;12.190;2024-03-08T08:04:24;0.90;99.90
24522;DHT22;12680;57.804;12.190;2024-03-08T08:06:51;1.00;99.90
24522;DHT22;12680;57.804;12.190;2024-03-08T08:09:19;1.00;99.90
24522;DHT22;12680;57.804;12.190;2024-03-08T08:11:55;1.10;99.90
24522;DHT22;12680;57.804;12.190;2024-03-08T08:14:22;1.20;99.90
24522;DHT22;12680;57.804;12.190;2024-03-08T08:16:49;1.20;99.90
24522;DHT22;12680;57.804;12.190;2024-03-08T08:19:19;1.30;99.90
24522;DHT22;12680;57.804;12.190;2024-03-08T08:21:46;1.40;99.90
24522;DHT22;12680;57.804;12.190;2024-03-08T08:24:13;1.50;99.90
24522;DHT22;12680;57.804;12.190;2024-03-08T08:26:40;1.60;99.90
24522;DHT22;12680;57.804;12.190;2024-03-08T08:29:07;1.70;99.90
24522;DHT22;12680;57.804;12.190;2024-03-08T08:31:34;1.80;99.90
24522;DHT22;12680;57.804;12.190;2024-03-08T08:34:01;1.90;99.90
24522;DHT22;12680;57.804;12.190;2024-03-08T08:36:29;2.00;99.90
24522;DHT22;12680;57.804;12.190;2024-03-08T08:38:56;2.10;99.90
24522;DHT22;12680;57.804;12.190;2024-03-08T08:41:25;2.20;99.90
24522;DHT22;12680;57.804;12.190;2024-03-08T08:43:52;2.20;99.90
24522;DHT22;12680;57.804;12.190;2024-03-08T08:46:33;2.30;99.90
24522;DHT22;12680;57.804;12.190;2024-03-08T08:49:07;2.50;99.90
24522;DHT22;12680;57.804;12.190;2024-03-08T08:51:37;2.70;99.90
24522;DHT22;12680;57.804;12.190;2024-03-08T08:54:04;2.80;99.90
24522;DHT22;12680;57.804;12.190;2024-03-08T08:56:37;2.90;99.90
24522;DHT22;12680;57.804;12.190;2024-03-08T08:59:04;3.10;99.90
24522;DHT22;12680;57.804;12.190;2024-03-08T09:01:31;3.20;99.90
24522;DHT22;12680;57.804;12.190;2024-03-08T09:03:58;3.30;99.90
24522;DHT22;12680;57.804;12.190;2024-03-08T09:06:25;3.50;99.90
24522;DHT22;12680;57.804;12.190;2024-03-08T09:08:52;3.60;99.90
24522;DHT22;12680;57.804;12.190;2024-03-08T09:11:19;3.70;99.90
24522;DHT22;12680;57.804;12.190;2024-03-08T09:13:46;3.80;99.90
24522;DHT22;12680;57.804;12.190;2024-03-08T09:16:13;3.90;99.90
24522;DHT22;12680;57.804;12.190;2024-03-08T09:18:40;3.90;99.90
24522;DHT22;12680;57.804;12.190;2024-03-08T09:21:08;3.90;99.90
24522;DHT22;12680;57.804;12.190;2024-03-08T09:23:39;3.90;99.90
24522;DHT22;12680;57.804;12.190;2024-03-08T09:26:08;4.00;99.90
24522;DHT22;12680;57.804;12.190;2024-03-08T09:28:48;4.10;99.90
24522;DHT22;12680;57.804;12.190;2024-03-08T09:31:15;4.10;99.90
24522;DHT22;12680;57.804;12.190;2024-03-08T09:33:44;4.10;99.90
24522;DHT22;12680;57.804;12.190;2024-03-08T09:36:11;4.20;99.90
24522;DHT22;12680;57.804;12.190;2024-03-08T09:38:39;4.20;99.90
24522;DHT22;12680;57.804;12.190;2024-03-08T09:41:08;4.30;99.90
24522;DHT22;12680;57.804;12.190;2024-03-08T09:43:37;4.30;99.90
24522;DHT22;12680;57.804;12.190;2024-03-08T09:46:04;5.00;99.90
24522;DHT22;12680;57.804;12.190;2024-03-08T09:48:33;4.50;99.90
24522;DHT22;12680;57.804;12.190;2024-03-08T09:51:01;4.60;99.90
24522;DHT22;12680;57.804;12.190;2024-03-08T09:53:28;4.60;99.90
24522;DHT22;12680;57.804;12.190;2024-03-08T09:55:56;6.40;99.90
24522;DHT22;12680;57.804;12.190;2024-03-08T09:58:23;4.80;99.90
24522;DHT22;12680;57.804;12.190;2024-03-08T10:00:59;4.80;99.90
24522;DHT22;12680;57.804;12.190;2024-03-08T10:03:31;4.90;99.90
24522;DHT22;12680;57.804;12.190;2024-03-08T10:05:59;5.00;99.90
24522;DHT22;12680;57.804;12.190;2024-03-08T10:08:29;5.10;99.90
24522;DHT22;12680;57.804;12.190;2024-03-08T10:10:56;5.20;99.90
24522;DHT22;12680;57.804;12.190;2024-03-08T10:13:26;5.20;99.90
24522;DHT22;12680;57.804;12.190;2024-03-08T10:15:54;5.30;99.90
24522;DHT22;12680;57.804;12.190;2024-03-08T10:18:21;5.40;99.90
24522;DHT22;12680;57.804;12.190;2024-03-08T10:21:06;5.40;99.90
24522;DHT22;12680;57.804;12.190;2024-03-08T10:23:34;5.50;99.90
24522;DHT22;12680;57.804;12.190;2024-03-08T10:26:14;5.60;99.90
24522;DHT22;12680;57.804;12.190;2024-03-08T10:28:46;5.70;99.90
24522;DHT22;12680;57.804;12.190;2024-03-08T10:31:17;5.80;99.90
24522;DHT22;12680;57.804;12.190;2024-03-08T10:33:45;5.90;99.90
24522;DHT22;12680;57.804;12.190;2024-03-08T10:36:14;5.90;99.90
24522;DHT22;12680;57.804;12.190;2024-03-08T10:38:42;6.00;99.90
24522;DHT22;12680;57.804;12.190;2024-03-08T10:41:09;6.10;99.90
24522;DHT22;12680;57.804;12.190;2024-03-08T10:46:35;6.30;99.90
24522;DHT22;12680;57.804;12.190;2024-03-08T10:49:10;6.40;99.90
24522;DHT22;12680;57.804;12.190;2024-03-08T10:51:40;6.50;99.90
24522;DHT22;12680;57.804;12.190;2024-03-08T10:54:10;6.60;99.90
24522;DHT22;12680;57.804;12.190;2024-03-08T10:56:38;6.70;99.90
24522;DHT22;12680;57.804;12.190;2024-03-08T10:59:08;6.80;99.90
24522;DHT22;12680;57.804;12.190;2024-03-08T11:01:35;6.90;99.90
24522;DHT22;12680;57.804;12.190;2024-03-08T11:04:06;7.00;99.90
24522;DHT22;12680;57.804;12.190;2024-03-08T11:09:11;7.10;99.90
24522;DHT22;12680;57.804;12.190;2024-03-08T11:14:48;7.40;99.90
24522;DHT22;12680;57.804;12.190;2024-03-08T11:20:01;7.60;99.90
24522;DHT22;12680;57.804;12.190;2024-03-08T11:22:34;7.60;99.90
24522;DHT22;12680;57.804;12.190;2024-03-08T11:25:05;7.70;99.90
24522;DHT22;12680;57.804;12.190;2024-03-08T11:27:39;7.90;99.90
24522;DHT22;12680;57.804;12.190;2024-03-08T11:30:07;7.90;99.90
24522;DHT22;12680;57.804;12.190;2024-03-08T11:32:47;8.00;99.90
24522;DHT22;12680;57.804;12.190;2024-03-08T11:35:20;8.10;99.90
24522;DHT22;12680;57.804;12.190;2024-03-08T11:37:47;8.20;99.90
24522;DHT22;12680;57.804;12.190;2024-03-08T11:40:15;8.30;99.90
24522;DHT22;12680;57.804;12.190;2024-03-08T11:42:46;8.30;99.90
24522;DHT22;12680;57.804;12.190;2024-03-08T11:45:19;8.40;99.90
24522;DHT22;12680;57.804;12.190;2024-03-08T11:47:48;8.50;99.90
24522;DHT22;12680;57.804;12.190;2024-03-08T11:50:17;8.60;99.90
24522;DHT22;12680;57.804;12.190;2024-03-08T11:52:46;8.60;99.90
24522;DHT22;12680;57.804;12.190;2024-03-08T11:55:13;8.70;99.90
24522;DHT22;12680;57.804;12.190;2024-03-08T11:57:40;8.80;99.90
24522;DHT22;12680;57.804;12.190;2024-03-08T12:00:17;8.80;99.90
24522;DHT22;12680;57.804;12.190;2024-03-08T12:03:04;8.90;99.90
24522;DHT22;12680;57.804;12.190;2024-03-08T12:05:32;9.00;99.90
24522;DHT22;12680;57.804;12.190;2024-03-08T12:08:01;9.00;99.90
24522;DHT22;12680;57.804;12.190;2024-03-08T12:10:29;9.10;99.90
24522;DHT22;12680;57.804;12.190;2024-03-08T12:12:58;9.20;99.90
24522;DHT22;12680;57.804;12.190;2024-03-08T12:15:29;9.20;99.90
24522;DHT22;12680;57.804;12.190;2024-03-08T12:17:59;9.30;99.90
24522;DHT22;12680;57.804;12.190;2024-03-08T12:20:28;9.30;99.80
24522;DHT22;12680;57.804;12.190;2024-03-08T12:22:58;9.40;99.50
24522;DHT22;12680;57.804;12.190;2024-03-08T12:42:59;9.50;99.30
24522;DHT22;12680;57.804;12.190;2024-03-08T12:52:51;10.20;98.40
24522;DHT22;12680;57.804;12.190;2024-03-08T12:55:22;10.40;97.60
24522;DHT22;12680;57.804;12.190;2024-03-08T12:57:49;10.40;97.30
24522;DHT22;12680;57.804;12.190;2024-03-08T13:05:14;10.40;97.20
24522;DHT22;12680;57.804;12.190;2024-03-08T13:07:41;10.70;97.20
24522;DHT22;12680;57.804;12.190;2024-03-08T13:10:13;10.80;97.10
24522;DHT22;12680;57.804;12.190;2024-03-08T13:12:42;10.80;96.80
24522;DHT22;12680;57.804;12.190;2024-03-08T13:15:09;10.80;96.50
24522;DHT22;12680;57.804;12.190;2024-03-08T13:17:49;10.80;96.60
24522;DHT22;12680;57.804;12.190;2024-03-08T13:20:16;10.90;96.40
24522;DHT22;12680;57.804;12.190;2024-03-08T13:22:56;10.90;96.00
24522;DHT22;12680;57.804;12.190;2024-03-08T13:25:23;10.90;96.10
24522;DHT22;12680;57.804;12.190;2024-03-08T13:27:50;11.00;96.10
24522;DHT22;12680;57.804;12.190;2024-03-08T14:42:33;11.00;96.00
24522;DHT22;12680;57.804;12.190;2024-03-08T14:45:00;10.80;94.80
24522;DHT22;12680;57.804;12.190;2024-03-08T14:47:27;10.70;94.90
24522;DHT22;12680;57.804;12.190;2024-03-08T14:49:55;10.70;94.90
24522;DHT22;12680;57.804;12.190;2024-03-08T14:52:23;10.70;95.00
24522;DHT22;12680;57.804;12.190;2024-03-08T14:54:56;10.60;95.10
24522;DHT22;12680;57.804;12.190;2024-03-08T14:57:24;10.60;94.90
24522;DHT22;12680;57.804;12.190;2024-03-08T14:59:51;10.50;95.10
24522;DHT22;12680;57.804;12.190;2024-03-08T15:02:18;10.50;95.30
24522;DHT22;12680;57.804;12.190;2024-03-08T15:04:49;10.40;95.30
24522;DHT22;12680;57.804;12.190;2024-03-08T15:07:25;10.40;95.40
24522;DHT22;12680;57.804;12.190;2024-03-08T15:09:52;11.90;95.90
24522;DHT22;12680;57.804;12.190;2024-03-08T15:12:19;10.40;95.70
24522;DHT22;12680;57.804;12.190;2024-03-08T15:14:47;10.40;95.70
24522;DHT22;12680;57.804;12.190;2024-03-08T15:17:15;10.30;95.60
24522;DHT22;12680;57.804;12.190;2024-03-08T15:19:48;10.30;95.60
24522;DHT22;12680;57.804;12.190;2024-03-08T15:22:15;10.20;95.80
24522;DHT22;12680;57.804;12.190;2024-03-08T15:24:44;10.20;95.80
24522;DHT22;12680;57.804;12.190;2024-03-08T15:27:11;10.10;95.90
24522;DHT22;12680;57.804;12.190;2024-03-08T15:29:38;10.10;96.10
24522;DHT22;12680;57.804;12.190;2024-03-08T15:32:05;11.90;96.70
24522;DHT22;12680;57.804;12.190;2024-03-08T15:34:33;10.10;96.30
24522;DHT22;12680;57.804;12.190;2024-03-08T15:37:05;10.00;96.40
24522;DHT22;12680;57.804;12.190;2024-03-08T15:39:31;10.00;96.50
24522;DHT22;12680;57.804;12.190;2024-03-08T15:42:00;9.90;96.60
24522;DHT22;12680;57.804;12.190;2024-03-08T15:44:27;9.80;96.70
24522;DHT22;12680;57.804;12.190;2024-03-08T15:46:55;9.80;96.80
24522;DHT22;12680;57.804;12.190;2024-03-08T15:49:22;9.70;96.80
24522;DHT22;12680;57.804;12.190;2024-03-08T15:51:51;9.60;97.20
24522;DHT22;12680;57.804;12.190;2024-03-08T15:54:17;9.60;97.10
24522;DHT22;12680;57.804;12.190;2024-03-08T15:59:12;9.60;97.20
24522;DHT22;12680;57.804;12.190;2024-03-08T16:01:39;9.50;97.40
24522;DHT22;12680;57.804;12.190;2024-03-08T16:04:06;9.50;97.60
24522;DHT22;12680;57.804;12.190;2024-03-08T16:06:33;9.50;97.70
24522;DHT22;12680;57.804;12.190;2024-03-08T16:09:02;9.40;97.80
24522;DHT22;12680;57.804;12.190;2024-03-08T16:11:30;9.30;97.70
24522;DHT22;12680;57.804;12.190;2024-03-08T16:26:20;9.30;97.90
24522;DHT22;12680;57.804;12.190;2024-03-08T16:28:49;8.60;98.60
24522;DHT22;12680;57.804;12.190;2024-03-08T16:31:16;8.50;98.70
24522;DHT22;12680;57.804;12.190;2024-03-08T16:36:11;8.40;98.80
24522;DHT22;12680;57.804;12.190;2024-03-08T16:38:40;8.20;99.00
24522;DHT22;12680;57.804;12.190;2024-03-08T16:41:10;8.10;99.10
24522;DHT22;12680;57.804;12.190;2024-03-08T16:43:39;8.00;99.20
24522;DHT22;12680;57.804;12.190;2024-03-08T16:46:06;7.90;99.30
24522;DHT22;12680;57.804;12.190;2024-03-08T16:48:33;7.80;99.30
24522;DHT22;12680;57.804;12.190;2024-03-08T16:51:00;7.70;99.50
24522;DHT22;12680;57.804;12.190;2024-03-08T16:53:27;7.60;99.60
24522;DHT22;12680;57.804;12.190;2024-03-08T16:56:02;7.50;99.70
24522;DHT22;12680;57.804;12.190;2024-03-08T16:58:31;7.40;99.80
24522;DHT22;12680;57.804;12.190;2024-03-08T17:01:00;7.30;99.80
24522;DHT22;12680;57.804;12.190;2024-03-08T17:03:28;7.20;99.90
24522;DHT22;12680;57.804;12.190;2024-03-08T17:05:56;7.10;99.90
24522;DHT22;12680;57.804;12.190;2024-03-08T17:08:24;7.00;99.90
24522;DHT22;12680;57.804;12.190;2024-03-08T17:10:51;7.00;99.90
24522;DHT22;12680;57.804;12.190;2024-03-08T17:13:18;6.90;99.90
24522;DHT22;12680;57.804;12.190;2024-03-08T17:18:15;6.90;99.90
24522;DHT22;12680;57.804;12.190;2024-03-08T17:25:40;6.70;99.90
24522;DHT22;12680;57.804;12.190;2024-03-08T17:28:09;6.40;99.90
24522;DHT22;12680;57.804;12.190;2024-03-08T17:30:39;6.30;99.90
24522;DHT22;12680;57.804;12.190;2024-03-08T17:33:08;6.20;99.90
24522;DHT22;12680;57.804;12.190;2024-03-08T17:43:07;6.10;99.90
24522;DHT22;12680;57.804;12.190;2024-03-08T17:45:37;5.80;99.90
24522;DHT22;12680;57.804;12.190;2024-03-08T17:50:39;5.70;99.90
24522;DHT22;12680;57.804;12.190;2024-03-08T17:53:07;5.60;99.90
24522;DHT22;12680;57.804;12.190;2024-03-08T17:55:40;5.60;99.90
24522;DHT22;12680;57.804;12.190;2024-03-08T17:58:09;5.50;99.90
24522;DHT22;12680;57.804;12.190;2024-03-08T18:00:42;5.50;99.90
24522;DHT22;12680;57.804;12.190;2024-03-08T18:03:10;5.50;99.90
24522;DHT22;12680;57.804;12.190;2024-03-08T18:05:41;5.40;99.90